Time;durP1;ratioP1;P1;durP2;ratioP2;P2;SDS_P1;SDS_P2;PMS_P1;PMS_P2;Temp;Humidity;BMP_temperature;BMP_pressure;BME280_temperature;BME280_humidity;BME280_pressure;Samples;Min_cycle;Max_cycle;Signal;HPM_P1;HPM_P2
2021/05/20 07:39:25;;;;;;;6.57;3.67;;;25.90;89.70;;;;;;4891316;29;20300;-74
2021/05/20 07:41:51;;;;;;;8.30;3.63;;;24.70;89.90;;;;;;4881116;29;20214;-75
2021/05/20 07:44:18;;;;;;;6.45;3.38;;;25.00;90.00;;;;;;4897688;29;20234;-74
2021/05/20 07:46:44;;;;;;;5.20;3.10;;;25.10;89.80;;;;;;4897764;29;20622;-75
2021/05/20 07:49:11;;;;;;;5.88;3.35;;;25.40;89.00;;;;;;4897474;29;20206;-75
2021/05/20 07:51:37;;;;;;;5.80;3.40;;;25.30;89.90;;;;;;4897871;29;20674;-75
2021/05/20 07:54:04;;;;;;;4.20;2.80;;;25.00;89.10;;;;;;4897979;29;20233;-75
2021/05/20 07:56:33;;;;;;;3.78;2.65;;;24.60;88.80;;;;;;4897776;29;20222;-76
2021/05/20 07:58:59;;;;;;;7.45;2.92;;;24.50;90.20;;;;;;4898082;29;20219;-75
2021/05/20 08:01:27;;;;;;;5.53;2.90;;;24.60;90.30;;;;;;4897398;29;20214;-73
2021/05/20 08:03:56;;;;;;;4.65;2.70;;;24.80;90.20;;;;;;4897834;29;20242;-73
2021/05/20 08:06:25;;;;;;;4.25;2.88;;;24.50;90.20;;;;;;4897505;29;20218;-73
2021/05/20 08:08:57;;;;;;;5.28;2.40;;;24.90;90.80;;;;;;4897902;29;20238;-72
2021/05/20 08:11:23;;;;;;;5.20;2.83;;;25.20;90.10;;;;;;4898034;29;20218;-74
2021/05/20 08:13:51;;;;;;;4.78;2.60;;;25.10;90.00;;;;;;4897805;29;20238;-73
2021/05/20 08:16:19;;;;;;;4.70;2.90;;;25.40;89.70;;;;;;4892833;29;20311;-70
2021/05/20 08:18:45;;;;;;;4.30;2.30;;;25.10;89.90;;;;;;4896654;29;20753;-74
2021/05/20 08:21:12;;;;;;;4.10;2.42;;;24.80;90.30;;;;;;4896203;29;20210;-77
2021/05/20 08:23:38;;;;;;;3.47;2.22;;;24.90;90.30;;;;;;4895819;29;20210;-74
2021/05/20 08:26:05;;;;;;;3.88;1.73;;;24.20;90.20;;;;;;4896275;29;20304;-73
2021/05/20 08:28:31;;;;;;;4.90;2.33;;;23.80;91.10;;;;;;4896282;29;20747;-72
2021/05/20 08:30:59;;;;;;;2.70;1.98;;;24.10;90.10;;;;;;4896147;29;20202;-75
2021/05/20 08:33:25;;;;;;;4.53;2.20;;;24.60;89.60;;;;;;4896366;29;20262;-72
2021/05/20 08:35:51;;;;;;;3.38;2.25;;;24.80;90.70;;;;;;4896732;29;20237;-77
2021/05/20 08:38:18;;;;;;;5.55;2.45;;;25.10;90.00;;;;;;4895835;29;20689;-72
2021/05/20 08:40:45;;;;;;;2.85;2.08;;;25.30;90.20;;;;;;4896588;29;20218;-70
2021/05/20 08:43:11;;;;;;;2.45;2.03;;;25.50;89.20;;;;;;4896481;29;20606;-75
2021/05/20 08:45:39;;;;;;;3.97;2.15;;;25.80;87.90;;;;;;4895408;29;20235;-74
2021/05/20 08:48:07;;;;;;;5.20;2.20;;;25.00;87.30;;;;;;4896232;29;20294;-73
2021/05/20 08:50:34;;;;;;;3.03;2.13;;;24.60;89.90;;;;;;4896379;29;20218;-72
2021/05/20 08:53:01;;;;;;;4.72;2.50;;;24.70;90.10;;;;;;4897449;29;20265;-69
2021/05/20 08:55:29;;;;;;;3.60;2.17;;;25.10;90.30;;;;;;4899443;29;20236;-73
2021/05/20 08:57:57;;;;;;;3.88;2.33;;;24.90;88.60;;;;;;4900144;29;20218;-69
2021/05/20 09:00:25;;;;;;;4.25;2.30;;;24.90;88.60;;;;;;4899465;29;20210;-72
2021/05/20 09:02:52;;;;;;;6.13;2.15;;;24.80;89.10;;;;;;4900454;29;20218;-72
2021/05/20 09:05:21;;;;;;;3.78;2.17;;;23.90;89.30;;;;;;4899627;29;20238;-71
2021/05/20 09:07:50;;;;;;;3.35;1.92;;;23.20;91.20;;;;;;4899510;29;20246;-73
2021/05/20 09:10:22;;;;;;;3.22;1.90;;;23.50;89.60;;;;;;4899321;29;20221;-75
2021/05/20 09:12:51;;;;;;;3.70;1.85;;;23.80;90.50;;;;;;4898627;29;20207;-72
2021/05/20 09:15:23;;;;;;;3.58;2.17;;;24.30;90.70;;;;;;4898848;29;20575;-71
2021/05/20 09:17:50;;;;;;;4.05;1.92;;;24.20;90.10;;;;;;4899662;29;20231;-72
2021/05/20 09:20:18;;;;;;;4.53;1.80;;;24.30;89.50;;;;;;4899719;29;20214;-72
2021/05/20 09:22:45;;;;;;;2.33;1.90;;;24.20;90.10;;;;;;4899029;29;20296;-73
2021/05/20 09:25:13;;;;;;;3.83;1.80;;;24.00;90.10;;;;;;4898796;29;20640;-73
2021/05/20 09:27:42;;;;;;;3.40;2.10;;;24.10;89.10;;;;;;4899485;29;20558;-71
2021/05/20 09:30:15;;;;;;;4.70;2.03;;;24.00;90.10;;;;;;4898616;29;20210;-75
2021/05/20 09:32:42;;;;;;;5.60;2.47;;;24.20;90.20;;;;;;4880857;29;20215;-76
2021/05/20 09:35:10;;;;;;;5.68;3.10;;;24.40;89.20;;;;;;4887657;29;20226;-73
2021/05/20 09:37:51;;;;;;;4.28;2.40;;;24.40;88.30;;;;;;4898223;29;20222;-67
2021/05/20 09:40:18;;;;;;;5.85;1.55;;;24.00;88.00;;;;;;4899217;29;20221;-70
2021/05/20 09:42:47;;;;;;;3.10;1.73;;;22.90;86.20;;;;;;4898960;29;20214;-72
2021/05/20 09:45:15;;;;;;;1.10;1.00;;;22.50;88.30;;;;;;4898236;29;20238;-68
2021/05/20 09:47:41;;;;;;;3.10;1.10;;;22.00;87.60;;;;;;4899263;29;20230;-68
2021/05/20 09:50:10;;;;;;;2.17;1.10;;;21.60;88.10;;;;;;4899300;29;20217;-69
2021/05/20 09:52:37;;;;;;;1.45;1.00;;;21.70;90.30;;;;;;4898820;29;20218;-70
2021/05/20 09:55:18;;;;;;;3.08;1.10;;;21.60;89.60;;;;;;4899681;29;20238;-72
2021/05/20 09:57:44;;;;;;;1.55;1.38;;;21.60;90.90;;;;;;4900161;29;20262;-71
2021/05/20 10:00:13;;;;;;;1.40;1.10;;;21.30;90.80;;;;;;4899859;29;20313;-72
2021/05/20 10:02:41;;;;;;;2.70;1.30;;;21.10;91.60;;;;;;4899847;29;20219;-72
2021/05/20 10:05:25;;;;;;;1.50;1.20;;;21.10;91.30;;;;;;4898397;29;20740;-72
2021/05/20 10:07:51;;;;;;;2.75;1.35;;;21.10;90.80;;;;;;4899802;29;20246;-72
2021/05/20 10:10:19;;;;;;;2.08;1.40;;;21.00;91.70;;;;;;4899304;29;20216;-72
2021/05/20 10:12:46;;;;;;;2.13;1.30;;;20.80;91.30;;;;;;4899486;29;20210;-72
2021/05/20 10:15:14;;;;;;;2.88;1.10;;;21.00;92.50;;;;;;4899763;29;20705;-72
2021/05/20 10:17:41;;;;;;;2.30;1.30;;;21.00;91.00;;;;;;4900138;29;20413;-72
2021/05/20 10:20:10;;;;;;;1.77;1.25;;;20.80;91.70;;;;;;4900029;29;20265;-72
2021/05/20 10:22:37;;;;;;;2.50;1.85;;;20.50;91.70;;;;;;4899432;29;20292;-72
2021/05/20 10:25:05;;;;;;;2.30;1.40;;;20.10;91.80;;;;;;4899368;29;20282;-71
2021/05/20 10:27:35;;;;;;;3.38;1.73;;;20.10;93.10;;;;;;4899515;29;20589;-72
2021/05/20 10:30:01;;;;;;;3.55;1.80;;;20.20;92.10;;;;;;4899860;29;20221;-72
2021/05/20 10:32:29;;;;;;;2.75;1.85;;;20.40;91.70;;;;;;4899710;29;20236;-72
2021/05/20 10:35:00;;;;;;;2.08;1.52;;;20.40;92.50;;;;;;4899360;29;20721;-72
2021/05/20 10:37:36;;;;;;;2.53;1.85;;;20.00;92.30;;;;;;4899269;29;20298;-71
2021/05/20 10:40:07;;;;;;;1.80;1.40;;;20.10;93.30;;;;;;4899126;29;20216;-71
2021/05/20 10:42:36;;;;;;;4.85;1.70;;;20.10;93.10;;;;;;4899453;29;20207;-71
2021/05/20 10:45:23;;;;;;;2.38;1.48;;;20.10;91.70;;;;;;4899307;29;20594;-71
2021/05/20 10:48:17;;;;;;;2.15;1.40;;;20.10;92.00;;;;;;4899158;29;20241;-73
2021/05/20 10:50:54;;;;;;;2.63;1.85;;;20.10;92.40;;;;;;4897091;29;20569;-73
2021/05/20 10:53:56;;;;;;;3.25;1.40;;;19.90;94.00;;;;;;4898827;29;20516;-73
2021/05/20 10:56:54;;;;;;;2.40;1.65;;;20.10;93.00;;;;;;4898946;29;20214;-73
2021/05/20 10:59:40;;;;;;;2.90;1.50;;;20.10;94.10;;;;;;4899164;29;20226;-73
2021/05/20 11:02:28;;;;;;;5.80;1.80;;;20.20;92.80;;;;;;4898915;29;20215;-73
2021/05/20 11:04:54;;;;;;;2.10;1.63;;;20.40;93.50;;;;;;4886601;29;20230;-73
2021/05/20 11:07:31;;;;;;;1.88;1.63;;;20.40;93.30;;;;;;4899110;29;20211;-73
2021/05/20 11:10:10;;;;;;;2.30;1.60;;;20.60;93.00;;;;;;4894953;29;20206;-71
2021/05/20 11:12:54;;;;;;;1.50;1.40;;;20.50;92.40;;;;;;4897109;29;20813;-70
2021/05/20 11:15:23;;;;;;;1.25;1.00;;;20.30;92.50;;;;;;4897167;29;20234;-69
2021/05/20 11:17:49;;;;;;;4.75;1.17;;;20.30;92.10;;;;;;4897058;29;20229;-69
2021/05/20 11:20:41;;;;;;;1.20;1.10;;;20.10;92.60;;;;;;4897763;29;20214;-71
2021/05/20 11:23:28;;;;;;;2.20;1.10;;;19.90;93.40;;;;;;4897489;29;20213;-68
2021/05/20 11:26:04;;;;;;;1.52;1.20;;;20.00;92.80;;;;;;4896696;29;20748;-71
2021/05/20 11:28:38;;;;;;;2.47;1.42;;;20.10;93.00;;;;;;4897431;29;20248;-70
2021/05/20 11:31:05;;;;;;;1.88;0.80;;;20.40;93.20;;;;;;4897302;29;20214;-71
2021/05/20 11:33:36;;;;;;;4.35;1.35;;;20.50;92.50;;;;;;4897217;29;20266;-70
2021/05/20 11:36:12;;;;;;;1.63;1.05;;;20.50;92.70;;;;;;4897532;29;20210;-69
2021/05/20 11:38:38;;;;;;;1.67;0.95;;;20.30;91.90;;;;;;4897089;29;20305;-68
2021/05/20 11:41:16;;;;;;;1.70;0.90;;;20.30;92.60;;;;;;4896714;29;20211;-68
2021/05/20 11:43:42;;;;;;;3.22;1.17;;;20.30;92.80;;;;;;4897193;29;20620;-66
2021/05/20 11:46:23;;;;;;;2.22;0.93;;;20.10;92.90;;;;;;4897040;29;20225;-69
2021/05/20 11:49:01;;;;;;;1.52;1.10;;;20.30;92.60;;;;;;4897029;29;20249;-67
2021/05/20 11:51:47;;;;;;;2.85;0.98;;;20.30;92.60;;;;;;4897327;29;20273;-68
2021/05/20 11:54:16;;;;;;;2.33;1.17;;;20.20;92.30;;;;;;4896334;29;20234;-66
2021/05/20 11:56:45;;;;;;;1.38;0.90;;;20.10;92.90;;;;;;4896510;29;20240;-67
2021/05/20 11:59:12;;;;;;;0.82;0.63;;;20.00;93.00;;;;;;4896968;29;20271;-68
2021/05/20 12:01:42;;;;;;;2.87;1.00;;;20.10;93.20;;;;;;4896465;29;20218;-68
2021/05/20 12:04:08;;;;;;;1.40;0.70;;;19.90;92.70;;;;;;4896948;29;20245;-67
2021/05/20 12:06:36;;;;;;;1.30;0.60;;;19.80;93.00;;;;;;4896781;29;20601;-68
2021/05/20 12:09:10;;;;;;;1.38;0.80;;;19.50;92.80;;;;;;4895987;29;20245;-68
2021/05/20 12:11:37;;;;;;;1.50;0.60;;;19.40;93.40;;;;;;4896288;29;20221;-69
2021/05/20 12:14:21;;;;;;;2.30;0.57;;;19.10;93.00;;;;;;4896937;29;20230;-68
2021/05/20 12:17:01;;;;;;;0.70;0.50;;;19.00;93.60;;;;;;4896441;29;20218;-67
2021/05/20 12:19:28;;;;;;;2.23;0.50;;;19.00;92.40;;;;;;4897048;29;20210;-67
2021/05/20 12:22:07;;;;;;;4.17;0.70;;;19.10;92.60;;;;;;4896672;29;20202;-70
2021/05/20 12:24:35;;;;;;;1.37;0.67;;;19.30;92.30;;;;;;4896144;29;20236;-67
2021/05/20 12:27:13;;;;;;;2.00;0.50;;;19.30;92.10;;;;;;4897212;29;20214;-68
2021/05/20 12:29:40;;;;;;;2.97;0.50;;;19.10;92.30;;;;;;4900291;29;20206;-68
2021/05/20 12:32:23;;;;;;;1.07;0.40;;;19.20;92.80;;;;;;4899764;29;20222;-67
2021/05/20 12:35:10;;;;;;;1.50;0.57;;;18.90;90.00;;;;;;4900232;29;20237;-67
2021/05/20 12:37:45;;;;;;;0.40;0.30;;;18.90;90.20;;;;;;4900458;29;20233;-67
2021/05/20 12:40:14;;;;;;;0.60;0.43;;;19.10;90.30;;;;;;4899762;29;20264;-68
2021/05/20 12:42:40;;;;;;;0.93;0.50;;;19.00;89.40;;;;;;4900605;29;20214;-68
2021/05/20 12:45:07;;;;;;;0.97;0.40;;;19.00;90.70;;;;;;4899562;29;20345;-71
2021/05/20 12:47:46;;;;;;;1.73;0.60;;;19.20;91.60;;;;;;4899051;29;20237;-68
2021/05/20 12:50:24;;;;;;;2.23;0.33;;;19.10;90.90;;;;;;4900044;29;20665;-69
2021/05/20 12:52:55;;;;;;;1.20;0.67;;;19.20;91.00;;;;;;4899888;29;20221;-71
2021/05/20 12:55:30;;;;;;;0.60;0.40;;;19.10;91.50;;;;;;4899992;29;20238;-71
2021/05/20 12:57:59;;;;;;;1.47;0.50;;;19.30;92.30;;;;;;4900296;29;20301;-68
2021/05/20 13:00:26;;;;;;;1.17;0.50;;;19.40;92.30;;;;;;4899792;29;20264;-73
2021/05/20 13:03:00;;;;;;;0.93;0.60;;;19.50;92.70;;;;;;4899618;29;20221;-77
2021/05/20 13:05:28;;;;;;;1.65;0.55;;;19.50;92.40;;;;;;4900183;29;20230;-71
2021/05/20 13:07:56;;;;;;;0.80;0.40;;;19.30;93.20;;;;;;4899715;29;20297;-72
2021/05/20 13:10:37;;;;;;;2.30;0.40;;;19.00;91.70;;;;;;4899796;29;20262;-73
2021/05/20 13:13:04;;;;;;;1.67;0.50;;;18.90;91.20;;;;;;4899707;29;20269;-73
2021/05/20 13:15:50;;;;;;;1.33;0.60;;;19.00;91.90;;;;;;4899281;29;20747;-72
2021/05/20 13:23:57;;;;;;;1.80;0.70;;;18.80;92.60;;;;;;4900603;29;20226;-71
2021/05/20 13:26:23;;;;;;;1.10;0.50;;;18.70;93.10;;;;;;4900691;29;20210;-73
2021/05/20 13:28:51;;;;;;;2.23;0.50;;;18.70;92.40;;;;;;4900705;29;20234;-72
2021/05/20 13:31:20;;;;;;;4.00;0.40;;;18.50;92.50;;;;;;4900918;29;20214;-71
2021/05/20 13:33:48;;;;;;;1.10;0.40;;;18.40;92.90;;;;;;4901205;29;20288;-72
2021/05/20 13:36:15;;;;;;;1.40;0.50;;;18.60;93.30;;;;;;4900363;29;20742;-71
2021/05/20 13:38:41;;;;;;;0.60;0.40;;;18.60;93.30;;;;;;4900235;29;20214;-72
2021/05/20 13:41:07;;;;;;;1.53;0.57;;;18.40;93.60;;;;;;4900045;29;20210;-72
2021/05/20 13:43:34;;;;;;;0.50;0.40;;;18.00;93.90;;;;;;4899982;29;20254;-72
2021/05/20 13:46:00;;;;;;;0.97;0.43;;;17.70;93.70;;;;;;4899946;29;20206;-71
2021/05/20 13:48:29;;;;;;;1.43;0.70;;;17.50;94.30;;;;;;4900497;29;20640;-71
2021/05/20 13:50:56;;;;;;;1.37;0.50;;;17.50;94.50;;;;;;4900098;29;20733;-72
2021/05/20 13:53:22;;;;;;;2.67;0.60;;;17.30;94.80;;;;;;4900192;29;20217;-72
2021/05/20 13:55:51;;;;;;;3.70;0.53;;;17.40;95.10;;;;;;4900054;29;20217;-72
2021/05/20 13:58:17;;;;;;;2.00;0.60;;;17.40;94.60;;;;;;4899917;29;20547;-71
2021/05/20 14:00:45;;;;;;;3.80;0.60;;;17.60;94.50;;;;;;4900102;29;20688;-71
2021/05/20 14:03:15;;;;;;;0.97;0.50;;;17.70;94.80;;;;;;4900143;29;20218;-72
2021/05/20 14:05:41;;;;;;;1.00;0.40;;;17.60;93.80;;;;;;4900115;29;20249;-71
2021/05/20 14:08:08;;;;;;;3.70;0.77;;;17.40;94.40;;;;;;4899805;29;20245;-72
2021/05/20 14:10:35;;;;;;;0.67;0.30;;;17.40;94.80;;;;;;4899974;29;20221;-71
2021/05/20 14:13:01;;;;;;;1.80;0.60;;;17.70;95.20;;;;;;4900215;29;20214;-70
2021/05/20 14:15:27;;;;;;;0.57;0.40;;;17.90;94.50;;;;;;4899842;29;20234;-72
2021/05/20 14:17:54;;;;;;;1.43;0.60;;;17.90;94.20;;;;;;4899852;29;20733;-71
2021/05/20 14:20:22;;;;;;;2.57;0.60;;;17.70;94.70;;;;;;4899807;29;20210;-72
2021/05/20 14:22:49;;;;;;;1.93;0.40;;;17.50;95.30;;;;;;4899600;29;20598;-72
2021/05/20 14:25:17;;;;;;;0.47;0.43;;;17.50;95.50;;;;;;4899722;29;20238;-72
2021/05/20 14:27:44;;;;;;;2.80;0.77;;;17.60;95.90;;;;;;4899716;29;20649;-71
2021/05/20 14:30:12;;;;;;;1.20;0.50;;;17.30;96.10;;;;;;4899723;29;20210;-71
2021/05/20 14:32:38;;;;;;;3.40;0.60;;;17.40;96.40;;;;;;4899523;29;20225;-72
2021/05/20 14:35:05;;;;;;;1.03;0.63;;;17.40;96.20;;;;;;4899565;29;20241;-71
2021/05/20 14:37:32;;;;;;;2.13;0.40;;;17.60;96.70;;;;;;4899666;29;20234;-72
2021/05/20 14:40:02;;;;;;;1.60;0.40;;;17.80;96.00;;;;;;4899259;29;20239;-72
2021/05/20 14:42:30;;;;;;;4.70;0.70;;;17.80;96.20;;;;;;4899354;29;20210;-72
2021/05/20 14:44:56;;;;;;;1.90;0.60;;;17.80;96.70;;;;;;4899212;29;20226;-72
2021/05/20 14:47:22;;;;;;;1.73;0.40;;;17.80;95.90;;;;;;4899282;29;20729;-72
2021/05/20 14:49:51;;;;;;;2.30;0.53;;;17.80;96.60;;;;;;4898541;29;20246;-71
2021/05/20 14:52:23;;;;;;;1.47;0.50;;;17.70;96.60;;;;;;4898700;29;20519;-72
2021/05/20 14:54:53;;;;;;;1.57;0.57;;;17.80;96.90;;;;;;4899180;29;20263;-72
2021/05/20 14:58:51;;;;;;;2.20;0.50;;;17.80;96.70;;;;;;4899060;29;20697;-72
2021/05/20 15:06:06;;;;;;;1.20;0.50;;;18.10;96.20;;;;;;4898839;29;20209;-72
2021/05/20 15:08:33;;;;;;;3.07;0.40;;;17.90;96.20;;;;;;4898543;29;20238;-71
2021/05/20 15:11:07;;;;;;;2.10;0.50;;;18.10;96.80;;;;;;4899118;29;20206;-71
2021/05/20 15:13:38;;;;;;;1.43;0.60;;;18.30;96.00;;;;;;4898678;29;20213;-71
2021/05/20 15:16:13;;;;;;;2.07;0.60;;;18.30;96.00;;;;;;4898776;29;20213;-71
2021/05/20 15:18:39;;;;;;;1.73;0.57;;;17.90;95.70;;;;;;4898952;29;20237;-71
2021/05/20 15:21:05;;;;;;;1.57;0.40;;;18.00;95.80;;;;;;4898964;29;20202;-71
2021/05/20 15:23:31;;;;;;;2.53;0.40;;;18.00;95.30;;;;;;4898163;29;20614;-71
2021/05/20 15:25:58;;;;;;;0.77;0.40;;;17.90;95.20;;;;;;4898524;29;20217;-72
2021/05/20 15:28:24;;;;;;;1.60;0.53;;;17.80;94.70;;;;;;4898629;29;20289;-72
2021/05/20 15:30:50;;;;;;;2.00;0.57;;;18.00;95.00;;;;;;4898520;29;20214;-71
2021/05/20 15:33:17;;;;;;;1.03;0.40;;;17.90;94.80;;;;;;4898413;29;20206;-71
2021/05/20 15:35:45;;;;;;;1.07;0.30;;;17.90;95.20;;;;;;4898284;29;20230;-71
2021/05/20 15:38:11;;;;;;;1.07;0.50;;;17.90;95.00;;;;;;4898131;29;20237;-71
2021/05/20 15:40:38;;;;;;;0.87;0.40;;;17.80;94.10;;;;;;4898465;29;20214;-72
2021/05/20 15:43:05;;;;;;;2.17;0.40;;;17.70;93.60;;;;;;4898208;29;20309;-72
2021/05/20 15:45:33;;;;;;;1.20;0.40;;;17.40;94.00;;;;;;4898246;29;20293;-72
2021/05/20 15:48:05;;;;;;;1.60;0.30;;;17.20;94.00;;;;;;4898738;29;20265;-71
2021/05/20 15:50:32;;;;;;;0.63;0.30;;;17.00;94.60;;;;;;4898260;29;20213;-72
2021/05/20 15:52:59;;;;;;;1.37;0.50;;;17.10;94.60;;;;;;4898303;29;20214;-72
2021/05/20 15:55:27;;;;;;;0.93;0.30;;;17.10;94.90;;;;;;4898090;29;20230;-72
2021/05/20 15:57:53;;;;;;;1.93;0.50;;;17.10;94.60;;;;;;4898035;29;20214;-71
2021/05/20 16:00:21;;;;;;;1.83;0.30;;;17.00;94.90;;;;;;4898111;29;20697;-71
2021/05/20 16:02:48;;;;;;;2.57;0.40;;;17.00;95.10;;;;;;4897709;29;20210;-71
2021/05/20 16:05:18;;;;;;;0.83;0.37;;;16.90;94.90;;;;;;4897847;29;20237;-71
2021/05/20 16:07:51;;;;;;;2.03;0.67;;;16.80;94.80;;;;;;4897787;29;20207;-71
2021/05/20 16:10:25;;;;;;;1.00;0.33;;;16.80;94.50;;;;;;4897856;29;20218;-71
2021/05/20 16:13:07;;;;;;;2.93;0.50;;;16.90;95.00;;;;;;4897907;29;20248;-71
2021/05/20 16:15:36;;;;;;;0.37;0.30;;;16.90;95.00;;;;;;4897623;29;20244;-71
2021/05/20 16:18:02;;;;;;;1.90;0.80;;;17.10;94.40;;;;;;4897582;29;20218;-71
2021/05/20 16:20:28;;;;;;;1.27;0.50;;;17.20;94.40;;;;;;4898054;29;20278;-71
2021/05/20 16:23:02;;;;;;;2.23;0.50;;;17.20;93.90;;;;;;4897980;29;20220;-71
2021/05/20 16:25:40;;;;;;;1.13;0.37;;;17.10;94.00;;;;;;4897686;29;20650;-71
2021/05/20 16:28:28;;;;;;;1.63;0.57;;;17.00;94.00;;;;;;4897258;29;20237;-72
2021/05/20 16:33:54;;;;;;;2.50;0.60;;;17.00;94.60;;;;;;4897403;29;20233;-71
2021/05/20 16:36:31;;;;;;;0.60;0.20;;;17.00;93.80;;;;;;4897509;29;20210;-72
2021/05/20 16:38:59;;;;;;;2.20;0.67;;;17.00;94.20;;;;;;4897588;29;20214;-72
2021/05/20 16:41:26;;;;;;;0.70;0.43;;;17.00;94.00;;;;;;4897816;29;20219;-71
2021/05/20 16:43:53;;;;;;;1.73;0.30;;;16.80;94.20;;;;;;4897794;29;20226;-72
2021/05/20 16:46:19;;;;;;;1.53;0.50;;;16.90;94.80;;;;;;4896300;29;20220;-74
2021/05/20 16:48:45;;;;;;;1.70;0.40;;;16.90;94.30;;;;;;4893986;29;20234;-76
2021/05/20 16:51:13;;;;;;;0.73;0.33;;;16.90;94.50;;;;;;4897035;29;20217;-75
2021/05/20 16:53:39;;;;;;;1.47;0.53;;;16.90;94.80;;;;;;4896466;29;20218;-73
2021/05/20 16:56:11;;;;;;;0.67;0.43;;;16.90;94.90;;;;;;4893825;29;20221;-74
2021/05/20 16:58:44;;;;;;;1.77;0.50;;;16.90;94.90;;;;;;4894958;29;20214;-73
2021/05/20 17:01:11;;;;;;;0.70;0.43;;;17.00;95.40;;;;;;4895571;29;20581;-74
2021/05/20 17:03:37;;;;;;;0.77;0.30;;;17.00;94.90;;;;;;4893907;29;20258;-73
2021/05/20 17:06:04;;;;;;;0.40;0.30;;;16.90;95.10;;;;;;4895573;29;20274;-74
2021/05/20 17:08:31;;;;;;;0.50;0.23;;;16.70;95.10;;;;;;4895920;29;20280;-74
2021/05/20 17:10:58;;;;;;;0.37;0.30;;;16.40;95.40;;;;;;4895720;29;20237;-74
2021/05/20 17:13:29;;;;;;;0.60;0.40;;;16.30;95.80;;;;;;4897042;29;20215;-76
2021/05/20 17:15:55;;;;;;;1.90;0.53;;;16.30;95.80;;;;;;4899507;29;20301;-75
2021/05/20 17:18:21;;;;;;;0.40;0.23;;;16.30;95.90;;;;;;4898733;29;20215;-76
2021/05/20 17:20:48;;;;;;;0.50;0.20;;;16.30;95.60;;;;;;4899342;29;20661;-75
2021/05/20 17:23:14;;;;;;;1.60;0.50;;;16.30;96.00;;;;;;4899771;29;20237;-73
2021/05/20 17:25:41;;;;;;;0.30;0.20;;;16.30;95.10;;;;;;4898902;29;20230;-74
2021/05/20 17:28:07;;;;;;;2.30;0.20;;;16.30;95.40;;;;;;4898827;29;20237;-73
2021/05/20 17:30:35;;;;;;;1.57;0.47;;;16.20;95.90;;;;;;4899452;29;20222;-73
2021/05/20 17:33:01;;;;;;;2.43;0.60;;;16.40;96.10;;;;;;4898810;29;20221;-73
2021/05/20 17:35:28;;;;;;;0.43;0.20;;;16.40;95.50;;;;;;4898957;29;20692;-72
2021/05/20 17:37:54;;;;;;;0.80;0.40;;;16.40;95.90;;;;;;4898897;29;20225;-73
2021/05/20 17:40:20;;;;;;;0.80;0.50;;;16.40;95.80;;;;;;4898725;29;20206;-72
2021/05/20 17:42:46;;;;;;;1.33;0.37;;;16.30;96.00;;;;;;4899214;29;20206;-72
2021/05/20 17:45:14;;;;;;;0.70;0.30;;;16.30;97.00;;;;;;4898967;29;20234;-72
2021/05/20 17:47:43;;;;;;;0.70;0.40;;;16.20;96.50;;;;;;4898351;29;20277;-72
2021/05/20 17:50:12;;;;;;;1.17;0.40;;;16.20;96.40;;;;;;4899418;29;20257;-72
2021/05/20 17:52:38;;;;;;;1.70;0.40;;;16.10;96.50;;;;;;4898628;29;20218;-72
2021/05/20 17:55:07;;;;;;;0.63;0.30;;;16.20;96.60;;;;;;4897937;29;20732;-73
2021/05/20 17:57:33;;;;;;;2.30;0.40;;;16.40;97.00;;;;;;4898792;29;20543;-73
2021/05/20 18:00:04;;;;;;;0.40;0.20;;;16.50;96.60;;;;;;4898987;29;20251;-73
2021/05/20 18:02:30;;;;;;;0.67;0.40;;;16.40;96.50;;;;;;4898559;29;20222;-72
2021/05/20 18:04:57;;;;;;;0.40;0.40;;;16.40;96.60;;;;;;4898543;29;20697;-73
2021/05/20 18:07:24;;;;;;;2.93;0.50;;;16.50;96.50;;;;;;4898203;29;20807;-73
2021/05/20 18:09:51;;;;;;;0.50;0.33;;;16.60;96.60;;;;;;4898131;29;20294;-73
2021/05/20 18:12:21;;;;;;;0.67;0.50;;;16.70;96.40;;;;;;4898412;29;20218;-73
2021/05/20 18:14:51;;;;;;;0.60;0.23;;;16.60;96.30;;;;;;4898663;29;20717;-73
2021/05/20 18:17:22;;;;;;;0.60;0.40;;;16.50;96.80;;;;;;4897559;29;20321;-73
2021/05/20 18:22:31;;;;;;;2.23;0.30;;;16.20;97.10;;;;;;4896063;29;20670;-73
2021/05/20 18:24:57;;;;;;;0.20;0.20;;;16.20;97.00;;;;;;4897123;29;20329;-73
2021/05/20 18:27:24;;;;;;;0.97;0.40;;;16.20;97.60;;;;;;4897891;29;20211;-74
2021/05/20 18:29:53;;;;;;;0.53;0.20;;;16.30;97.50;;;;;;4897530;29;20245;-72
2021/05/20 18:32:19;;;;;;;0.80;0.33;;;16.10;97.40;;;;;;4897518;29;20214;-74
2021/05/20 18:34:45;;;;;;;0.33;0.30;;;16.10;97.60;;;;;;4898014;29;20234;-73
2021/05/20 18:37:13;;;;;;;0.63;0.30;;;16.10;98.20;;;;;;4897495;29;20776;-73
2021/05/20 18:39:43;;;;;;;2.83;0.33;;;16.00;97.40;;;;;;4896983;29;20210;-73
2021/05/20 18:42:13;;;;;;;0.97;0.30;;;15.90;97.90;;;;;;4898197;29;20211;-73
2021/05/20 18:44:42;;;;;;;0.87;0.40;;;15.90;97.70;;;;;;4898246;29;20243;-73
2021/05/20 18:47:08;;;;;;;1.03;0.40;;;15.90;98.10;;;;;;4897062;29;20246;-73
2021/05/20 18:49:34;;;;;;;0.70;0.30;;;15.90;98.10;;;;;;4897520;29;20242;-73
2021/05/20 18:52:03;;;;;;;0.63;0.30;;;16.00;98.30;;;;;;4898119;29;20214;-73
2021/05/20 18:54:31;;;;;;;3.07;0.40;;;15.90;97.90;;;;;;4897534;29;20235;-72
2021/05/20 18:56:58;;;;;;;1.07;0.40;;;15.90;98.30;;;;;;4897788;29;20256;-72
2021/05/20 18:59:24;;;;;;;1.60;0.50;;;15.90;98.30;;;;;;4898949;29;20222;-73
2021/05/20 19:01:51;;;;;;;1.30;0.40;;;15.80;98.40;;;;;;4894723;29;20641;-73
2021/05/20 19:04:19;;;;;;;0.87;0.30;;;15.80;98.60;;;;;;4896428;29;20234;-71
2021/05/20 19:06:49;;;;;;;1.03;0.30;;;15.70;98.80;;;;;;4896629;29;20713;-72
2021/05/20 19:09:15;;;;;;;0.57;0.30;;;15.70;98.90;;;;;;4897160;29;20325;-72
2021/05/20 19:11:43;;;;;;;0.87;0.50;;;15.70;98.70;;;;;;4898014;29;20210;-71
2021/05/20 19:14:11;;;;;;;0.73;0.30;;;15.70;99.00;;;;;;4898888;29;20709;-72
2021/05/20 19:16:39;;;;;;;1.33;0.40;;;15.70;99.20;;;;;;4898424;29;20219;-72
2021/05/20 19:19:14;;;;;;;0.73;0.40;;;15.70;99.30;;;;;;4899000;29;20211;-72
2021/05/20 19:21:40;;;;;;;1.43;0.40;;;15.70;99.10;;;;;;4898862;29;20237;-71
2021/05/20 19:24:07;;;;;;;0.63;0.40;;;15.70;99.40;;;;;;4898602;29;20230;-72
2021/05/20 19:26:34;;;;;;;0.43;0.30;;;15.70;99.50;;;;;;4898621;29;20211;-71
2021/05/20 19:29:08;;;;;;;1.27;0.40;;;15.60;99.80;;;;;;4898290;29;20288;-71
2021/05/20 19:31:44;;;;;;;0.70;0.30;;;15.60;99.80;;;;;;4898741;29;20216;-72
2021/05/20 19:34:10;;;;;;;1.40;0.33;;;15.70;99.90;;;;;;4899203;29;20229;-71
2021/05/20 19:36:36;;;;;;;2.13;0.50;;;15.70;99.90;;;;;;4898333;29;20214;-71
2021/05/20 19:39:05;;;;;;;3.73;0.40;;;15.60;99.90;;;;;;4898118;29;20678;-72
2021/05/20 19:41:31;;;;;;;1.30;0.40;;;15.50;99.90;;;;;;4898210;29;20214;-72
2021/05/20 19:43:57;;;;;;;1.70;0.40;;;15.40;99.90;;;;;;4898615;29;20226;-72
2021/05/20 19:46:23;;;;;;;1.47;0.40;;;15.30;99.90;;;;;;4898693;29;20206;-71
2021/05/20 19:48:50;;;;;;;2.20;0.50;;;15.30;99.90;;;;;;4898124;29;20793;-72
2021/05/20 19:51:16;;;;;;;0.53;0.30;;;15.30;99.90;;;;;;4898094;29;20222;-73
2021/05/20 19:53:51;;;;;;;1.90;0.60;;;15.20;99.90;;;;;;4898106;29;20210;-72
2021/05/20 19:59:26;;;;;;;0.50;0.30;;;15.30;99.90;;;;;;4898274;29;20696;-72
2021/05/20 20:01:53;;;;;;;0.93;0.33;;;15.40;99.90;;;;;;4898183;29;20222;-72
2021/05/20 20:04:25;;;;;;;0.30;0.30;;;15.40;99.90;;;;;;4897904;29;20240;-72
2021/05/20 20:06:58;;;;;;;0.57;0.30;;;15.40;99.90;;;;;;4898340;29;20217;-72
2021/05/20 20:09:25;;;;;;;0.73;0.40;;;15.30;99.90;;;;;;4898028;29;20278;-72
2021/05/20 20:11:51;;;;;;;2.10;0.70;;;15.30;99.90;;;;;;4897975;29;20214;-72
2021/05/20 20:14:22;;;;;;;1.63;0.43;;;15.30;99.90;;;;;;4897854;29;20237;-72
2021/05/20 20:16:48;;;;;;;0.73;0.43;;;15.30;99.90;;;;;;4898095;29;20215;-72
2021/05/20 20:19:22;;;;;;;0.77;0.33;;;15.30;99.90;;;;;;4897882;29;20688;-72
2021/05/20 20:21:52;;;;;;;3.10;0.60;;;15.30;99.90;;;;;;4898036;29;20210;-72
2021/05/20 20:24:23;;;;;;;0.87;0.30;;;15.20;99.90;;;;;;4897699;29;20706;-72
2021/05/20 20:29:33;;;;;;;4.10;0.30;;;15.20;99.90;;;;;;4897765;29;20297;-71
2021/05/20 20:32:00;;;;;;;3.27;0.40;;;15.10;99.90;;;;;;4898035;29;20299;-72
2021/05/20 20:34:36;;;;;;;1.43;0.30;;;15.10;99.90;;;;;;4897897;29;20227;-71
2021/05/20 20:37:21;;;;;;;1.67;0.60;;;15.10;99.90;;;;;;4897897;29;20222;-73
2021/05/20 20:42:31;;;;;;;0.47;0.30;;;15.10;99.90;;;;;;4897928;29;20214;-72
2021/05/20 20:44:59;;;;;;;1.43;0.37;;;15.10;99.90;;;;;;4898065;29;20290;-73
2021/05/20 20:47:26;;;;;;;3.47;0.63;;;15.00;99.90;;;;;;4897639;29;20661;-73
2021/05/20 20:49:54;;;;;;;1.90;0.43;;;15.00;99.90;;;;;;4901173;29;20238;-73
2021/05/20 20:52:21;;;;;;;1.00;0.50;;;15.00;99.90;;;;;;4901475;29;20213;-73
2021/05/20 20:54:48;;;;;;;1.40;0.50;;;15.00;99.90;;;;;;4901197;29;20231;-73
2021/05/20 20:57:16;;;;;;;1.07;0.50;;;15.00;99.90;;;;;;4901370;29;20206;-73
2021/05/20 20:59:42;;;;;;;2.77;0.70;;;15.00;99.90;;;;;;4901358;29;20213;-73
2021/05/20 21:02:08;;;;;;;2.43;0.60;;;15.00;99.90;;;;;;4901352;29;20222;-73
2021/05/20 21:04:35;;;;;;;0.33;0.30;;;15.00;99.90;;;;;;4901132;29;20266;-74